Terminal Aerodrome Forecast
Issued by NWS Boston, MA

Home | Current Version | Previous Version | Text Only | Print | Product List | Glossary On
Versions: 1 2 3 4 5 6 7 8 9 10 11 12 13 14 15 16 17 18 19 20 21 22 23 24 25 26 27 28 29 30 31 32 33 34 35 36 37 38 39 40 41
000
FTUS41 KBOX 231443 AAA
TAFORH
TAF AMD
KORH 231443Z 2315/2412 04007KT P6SM BKN015
     FM231700 05007KT P6SM BKN025
     FM231800 05007KT P6SM BKN050
     FM232100 07005KT P6SM SCT200
     FM240400 35004KT P6SM SCT250=

USA.gov is the U.S. government's official web portal to all federal, state and local government web resources and services.